汽车文库

 找回密码
 立即注册

收藏本版 |订阅

汽车电子协会AEC 今日: 0|主题: 44|排名: 32 

作者 回复/查看 最后发表
公告 公告: ①活动:上传1附件立得99积分 chebar123 2022-2-24    
全局置顶 隐藏置顶帖 智能驾驶产业链图谱(共享版) attach_img digest 连平土特产 前天 13:01 018 连平土特产 昨天 20:57
AEC-Q200-007 - Rev-A Voltage Surge Test attachment vyijxrvf893396 2022-6-28 1135 阿修罗322 7 天前
AEC-Q101-001 - Rev-A Human Body Model HBM Electrostatic Discharge Test attachment vyijxrvf893396 2022-6-28 1192 折失的誓言群 2022-11-22 21:16
AEC-Q102_Rev A_CDC_Template attachment vyijxrvf893396 2022-6-28 1287 琴麻麻i 2022-11-15 14:57
AEC-Q101-006 - Rev- Short Circuit Reliability Characterization of Smart Power D attachment vyijxrvf893396 2022-6-28 1130 JDLMDJIA 2022-11-6 13:29
AEC-Q100-002 - Rev-E Human Body Model HBM Electrostatic Discharge Test attachment heatlevel vyijxrvf893396 2022-6-28 3103 换即势 2022-10-29 18:39
AEC-Q102_Rev A_QTP_Template attachment vyijxrvf893396 2022-6-28 1202 echo4821 2022-10-26 11:32
AEC-Q102-001 Rev- Initial Release Dew Test attachment vyijxrvf893396 2022-6-28 1121 爱过就是完全脖 2022-10-25 00:58
AEC-Q100-010 - Rev-A Solder Ball Shear Test attachment vyijxrvf893396 2022-6-28 1252 真爱在哪 2022-10-6 13:51
AEC-Q100-011 - Rev-D Charged Device Model CDM Electrostatic Discharge Test attachment vyijxrvf893396 2022-6-28 1192 小小一个家 2022-10-3 17:45
AEC-Q200-004 - Rev-A Measurement Procedures for Resettable Fuses attachment vyijxrvf893396 2022-6-28 1233 逆袭的志志雄 2022-9-7 16:27
AEC-Q004 Rev- Initial Release Automotive Zero Defects Framework attachment heatlevel vyijxrvf893396 2022-6-28 2230 前途得要 2022-9-7 14:57
AEC-Q200 Rev - D base Stress Test Qualification For Passive Components base document attachment vyijxrvf893396 2022-6-28 1125 刘晨阳1 2022-8-31 04:40
AEC-Q101-005 - Rev-A Charged Device Model CDM Electrostatic Discharge Test attachment heatlevel vyijxrvf893396 2022-6-28 286 安简炫_ 2022-8-11 01:01
AEC-Q102 Rev-A Failure Mechanism Based Stress Test Qualification for Optoelectr attachment vyijxrvf893396 2022-6-28 1150 咑啲呿迗嘡迗qc 2022-7-31 18:11
AEC-Q200-002 - Rev-B Human Body Model HBM Electrostatic Discharge Test attachment vyijxrvf893396 2022-6-28 1259 淡情惜缘缘wt 2022-7-26 14:31
AEC-Q101-004 - Rev- Miscellaneous Test Methods attachment vyijxrvf893396 2022-6-28 1149 hzg黄志光 2022-7-21 08:21
AEC-Q100-001 - Rev-C Wire Bond Shear Test attachment vyijxrvf893396 2022-6-28 1185 123457468 2022-7-17 16:43
AEC-Q101-003 - Rev-A Wire Bond Shear Test attachment vyijxrvf893396 2022-6-28 1227 南来北往的风 2022-7-13 00:04
AEC-Q104_Rev-_CDC_Template_Final attachment vyijxrvf893396 2022-6-28 0230 vyijxrvf893396 2022-6-28 09:04
AEC-Q102_Rev A_Qualification_Data_Presentation attachment vyijxrvf893396 2022-6-28 0281 vyijxrvf893396 2022-6-28 09:04
AEC_Q104_Rev-_QTP_Template_Final attachment vyijxrvf893396 2022-6-28 0137 vyijxrvf893396 2022-6-28 09:04
AEC_Q100_QTP_Template_Rev_H attachment vyijxrvf893396 2022-6-28 0106 vyijxrvf893396 2022-6-28 09:04
AEC_Q100_CDC_Rev_H attachment vyijxrvf893396 2022-6-28 0115 vyijxrvf893396 2022-6-28 09:04
AEC-Q200-006 - Rev-A Terminal Strength SMD - Shear Stress Test attachment vyijxrvf893396 2022-6-28 0241 vyijxrvf893396 2022-6-28 09:03
AEC-Q200-005 - Rev-A Board Flex - Terminal Bond Strength Test attachment vyijxrvf893396 2022-6-28 0130 vyijxrvf893396 2022-6-28 09:03
AEC-Q200-003 - Rev-B Beam Load Break Strength Test attachment vyijxrvf893396 2022-6-28 0274 vyijxrvf893396 2022-6-28 09:03
AEC-Q200-001 - Rev-B Flame Retardance Test attachment vyijxrvf893396 2022-6-28 0201 vyijxrvf893396 2022-6-28 09:03
AEC-Q104 Rev - Initial Release Failure Mechanism Based Stress Test Qualificatio attachment vyijxrvf893396 2022-6-28 0243 vyijxrvf893396 2022-6-28 09:03
AEC-Q103-003 Rev - Initial Release Failure Mechanism Based Stress Test Qualific attachment vyijxrvf893396 2022-6-28 0193 vyijxrvf893396 2022-6-28 09:03
AEC-Q103-002 Rev - Initial Release Failure Mechanism Based Stress Test Qualific attachment vyijxrvf893396 2022-6-28 0161 vyijxrvf893396 2022-6-28 09:03
AEC-Q102-002 Rev- Initial Release Board Flex Test attachment vyijxrvf893396 2022-6-28 068 vyijxrvf893396 2022-6-28 09:03
AEC-Q101 Rev - E Failure Mechanism Based Stress Test Qualification For Discrete attachment vyijxrvf893396 2022-6-28 0215 vyijxrvf893396 2022-6-28 09:02
AEC-Q100-012 - Rev- Short Circuit Reliability Characterization of Smart Power D attachment vyijxrvf893396 2022-6-28 0150 vyijxrvf893396 2022-6-28 09:02
AEC-Q100-009 - Rev-B Electrical Distribution Assessment attachment vyijxrvf893396 2022-6-28 0174 vyijxrvf893396 2022-6-28 09:02
AEC-Q100-008 - Rev-A Early Life Failure Rate ELFR attachment vyijxrvf893396 2022-6-28 078 vyijxrvf893396 2022-6-28 09:02
AEC-Q100-007 - Rev-B Fault Simulation and Test Grading attachment vyijxrvf893396 2022-6-28 0239 vyijxrvf893396 2022-6-28 09:02
AEC-Q100-005 - Rev-D1 Non-Volatile Memory Program-Erase Endurance, Data Retenti attachment vyijxrvf893396 2022-6-28 072 vyijxrvf893396 2022-6-28 09:02
AEC-Q100-004 - Rev-D IC Latch-Up Test attachment vyijxrvf893396 2022-6-28 039 vyijxrvf893396 2022-6-28 09:02
AEC-Q100 Rev - H Failure Mechanism Based Stress Test Qualification For Integrate attachment vyijxrvf893396 2022-6-28 0117 vyijxrvf893396 2022-6-28 09:02
AEC-Q006 Rev - A Qualification Requirements for Components using Copper Cu Wire attachment vyijxrvf893396 2022-6-28 0211 vyijxrvf893396 2022-6-28 09:02
AEC-Q005 Rev - A Pb-Free Test Requirements attachment vyijxrvf893396 2022-6-28 0106 vyijxrvf893396 2022-6-28 09:02
AEC-Q003 Rev-A Guidelines for Characterizing the Electrical Performance of Int attachment vyijxrvf893396 2022-6-28 0222 vyijxrvf893396 2022-6-28 09:02
AEC-Q002 Rev - B Guidelines for Statistical Yield Analysis attachment vyijxrvf893396 2022-6-28 0185 vyijxrvf893396 2022-6-28 09:02
AEC-Q001 Rev - D Guidelines for Part Average Testing attachment vyijxrvf893396 2022-6-28 0121 vyijxrvf893396 2022-6-28 09:02

本站公众号|手机版| ( 沪ICP备2021033100号-2 )

GMT+8, 2022-12-1 23:41

Powered by Discuz! X3.4

Copyright © 2001-2022, Qichewenku.com

返回顶部 返回版块